Aviation Weather


METAR: 2022/05/22 07:50 ENVA 220750Z 30003KT 9999 SCT021 BKN063 13/08 Q1012 NOSIG RMK WIND 670FT VRB03KT

Vær-rapport

METAR for
ENVA utstedt den 22/5-2022 klokka 07:50 UTC:


Vind: Nordvestlig flau vind fra 300 grader med en vindhastighet på 3 knop (2 m/s, 6 km/t, Styrke 1)
Sikt: Bedre enn 10 km.
Skyer: Spredte skyer (3/8 - 4/8) oppe i 2100 fot. (640 meter)
Skyer: Brutte skyer (5/8 - 7/8) oppe i 6300 fot. (1,920 meter)
Temperatur: 13°C med duggpunkt på 8°C. Temperatur føles som 13.0°C.
Luftfuktigheten er: 72%.
Lufttrykk: 1012 hPa.
Vær: Ingen betydelige endringer
Bemerkning:
Vind: I en høyde av 670 fot er det Variabel med en vindhastighet på 3 knop (2 m/s, 6 km/t, Styrke 1)


TAF: 2022/05/22 06:57 TAF ENVA 220500Z 2206/2306 13008KT 9999 -RA FEW015 BKN025 TEMPO 2206/2209 BKN009

Vær-prognose

Værprognose for
ENVA utstedt den 22/5-2022 klokka 06:57 UTC:


Varsel er gyldig mellom den 22. klokka 6:00 og den 23. klokka 6:00
Vind: S?r?stlig lett bris fra 130 grader med en vindhastighet på 8 knop (4 m/s, 15 km/t, Styrke 3)
Sikt: Bedre enn 10 km.
Vær: lett regn
Skyer: Få skyer (1/8 - 2/8) oppe i 1500 fot. (457 meter)
Skyer: Brutte skyer (5/8 - 7/8) oppe i 2500 fot. (762 meter)

Mellom den 22. klokka 6:00 og den 22. klokka 9:00 vil det av og til bli:
Skyer: Brutte skyer (5/8 - 7/8) oppe i 900 fot. (274 meter)